Delray Beach, FL (33444)

6:29 PM EDT on July 23, 2016 (GMT -0400)
Delray Beach | | Change Station

Elev 30 ft 26.47 °N, 80.09 °W | Updated 7 seconds ago

Mostly Cloudy
Mostly Cloudy
87.1 °F
Feels Like 104 °F
N
1.7
Wind Variable Wind from SSE
Gusts 3.2 mph

Today
High -- | Low -- °F
--% Chance of Precip.
Yesterday
High -- | Low -- °F
Precip. -- in
Pressure 30.01 in
Visibility 10.0 miles
Clouds Few 2500 ft
Scattered Clouds 14000 ft
Mostly Cloudy 22000 ft
Heat Index 104 °F
Dew Point 80 °F
Humidity 81%
Rainfall 0.00 in
Snow Depth Not available.
6:41 AM 8:12 PM
Waning Gibbous, 82% visible
METAR KPMP 232153Z 13006KT 10SM FEW025 SCT140 BKN220 29/24 A3000 RMK AO2 SLP160 T02940239
Pressure 30.01 in
Visibility 10.0 miles
Clouds Few 2500 ft
Scattered Clouds 14000 ft
Mostly Cloudy 22000 ft
Heat Index 104 °F
Dew Point 80 °F
Humidity 81%
Rainfall 0.00 in
Snow Depth Not available.
6:41 AM 8:12 PM
Waning Gibbous, 82% visible
METAR KPMP 232153Z 13006KT 10SM FEW025 SCT140 BKN220 29/24 A3000 RMK AO2 SLP160 T02940239

10-Day Weather Forecast

Almanac

Astronomy

Jul. 23, 2016 Rise Set
Actual Time
Civil Twilight
Nautical Twilight
Astronomical Twilight
Moon
Length of Visible Light
Length of Day
Tomorrow will be .
, % of the Moon is Illuminated

Today's Extremes

State Highs State Lows

Community

WunderPhotos

Upload Photos

1,926,948 photos uploaded!

WunderBlog® & News

Nearby

Air Quality

  Air Quality AQ Index Pollutant
Not available.

Snow Depth

Station Depth Elevation

Earthquake Activity

City Distance Mag. Time & Date
Minimum magnitude displayed is 2.5.

Coastal Water Temperatures

Place Temperature

Stations

Nearby Weather Stations

Station Location Temp. Windchill Dew Point Humidity Wind Precip. Elev Updated Type
                   

Watches & Warnings

There are currently no watches in effect.